createdAt,value
2017-09-23T00:00:18.520Z,101237.97
2017-09-23T00:01:24.642Z,101235.17
2017-09-23T00:02:31.641Z,101238.30
2017-09-23T00:03:37.708Z,101237.13
2017-09-23T00:04:45.798Z,101234.31
2017-09-23T00:05:51.668Z,101235.48
2017-09-23T00:06:57.748Z,101239.66
2017-09-23T00:08:03.843Z,101241.55
2017-09-23T00:09:09.992Z,101233.78
2017-09-23T00:10:16.981Z,101242.78
2017-09-23T00:11:23.078Z,101242.84
2017-09-23T00:12:29.986Z,101246.80
2017-09-23T00:13:36.187Z,101246.56
2017-09-23T00:14:42.448Z,101247.59
2017-09-23T00:15:49.087Z,101252.19
2017-09-23T00:16:55.667Z,101251.92
2017-09-23T00:18:02.409Z,101254.27
2017-09-23T00:19:08.513Z,101256.12
2017-09-23T00:20:14.616Z,101254.03
2017-09-23T00:21:20.830Z,101248.27
2017-09-23T00:22:26.914Z,101252.35
2017-09-23T00:23:33.017Z,101246.80
2017-09-23T00:24:39.121Z,101248.20
2017-09-23T00:25:45.230Z,101248.23
2017-09-23T00:26:51.345Z,101248.11
2017-09-23T00:27:58.776Z,101245.94
2017-09-23T00:29:05.414Z,101243.48
2017-09-23T00:30:11.885Z,101238.00
2017-09-23T00:31:18.939Z,101238.05
2017-09-23T00:32:25.138Z,101238.14
2017-09-23T00:33:31.634Z,101238.60
2017-09-23T00:34:37.817Z,101236.33
2017-09-23T00:35:44.502Z,101240.63
2017-09-23T00:36:50.632Z,101242.53
2017-09-23T00:37:56.722Z,101235.25
2017-09-23T00:39:02.609Z,101237.54
2017-09-23T00:40:08.477Z,101232.41
2017-09-23T00:41:14.550Z,101235.04
2017-09-23T00:42:20.098Z,101230.43
2017-09-23T00:43:26.220Z,101236.52
2017-09-23T00:44:32.325Z,101235.39
2017-09-23T00:45:38.394Z,101228.22
2017-09-23T00:46:44.501Z,101230.91
2017-09-23T00:47:50.584Z,101227.61
2017-09-23T00:48:56.779Z,101223.72
2017-09-23T00:50:02.880Z,101223.44
2017-09-23T00:51:08.287Z,101226.98
2017-09-23T00:52:13.629Z,101221.52
2017-09-23T00:53:19.023Z,101220.06
2017-09-23T00:54:24.576Z,101219.95
2017-09-23T00:55:30.323Z,101220.13
2017-09-23T00:56:36.410Z,101220.28
2017-09-23T00:57:42.653Z,101230.52
2017-09-23T00:58:48.775Z,101227.63
2017-09-23T00:59:54.953Z,101223.00
2017-09-23T01:01:01.042Z,101228.59
2017-09-23T01:02:09.107Z,101228.98
2017-09-23T01:03:17.013Z,101225.91
2017-09-23T01:04:23.092Z,101223.58
2017-09-23T01:05:28.955Z,101225.56
2017-09-23T01:06:34.455Z,101228.37
2017-09-23T01:07:40.546Z,101228.96
2017-09-23T01:08:46.664Z,101226.15
2017-09-23T01:09:52.722Z,101232.47
2017-09-23T01:10:58.422Z,101222.96
2017-09-23T01:12:03.780Z,101218.88
2017-09-23T01:13:11.378Z,101225.38
2017-09-23T01:14:17.627Z,101223.87
2017-09-23T01:15:23.332Z,101219.30
2017-09-23T01:16:29.391Z,101221.20
2017-09-23T01:17:35.447Z,101223.52
2017-09-23T01:18:41.736Z,101222.20
2017-09-23T01:19:47.487Z,101219.02
2017-09-23T01:20:52.839Z,101218.66
2017-09-23T01:21:58.230Z,101221.19
2017-09-23T01:23:03.960Z,101222.28
2017-09-23T01:24:09.351Z,101222.67
2017-09-23T01:25:14.919Z,101220.79
2017-09-23T01:26:20.431Z,101224.20
2017-09-23T01:27:26.495Z,101223.55
2017-09-23T01:28:32.396Z,101218.93
2017-09-23T01:29:38.160Z,101221.62
2017-09-23T01:30:43.717Z,101218.48
2017-09-23T01:31:50.864Z,101218.81
2017-09-23T01:32:57.146Z,101221.36
2017-09-23T01:34:03.518Z,101220.72
2017-09-23T01:35:09.597Z,101220.37
2017-09-23T01:36:15.518Z,101220.32
2017-09-23T01:37:21.605Z,101220.55
2017-09-23T01:38:27.649Z,101219.78
2017-09-23T01:39:33.712Z,101217.96
2017-09-23T01:40:39.770Z,101215.06
2017-09-23T01:41:45.872Z,101214.20
2017-09-23T01:42:51.922Z,101215.09
2017-09-23T01:43:58.686Z,101219.27
2017-09-23T01:45:04.771Z,101218.81
2017-09-23T01:46:10.848Z,101214.25
2017-09-23T01:47:16.954Z,101211.55
2017-09-23T01:48:23.135Z,101214.53
2017-09-23T01:49:29.379Z,101212.10
2017-09-23T01:50:35.455Z,101214.60
2017-09-23T01:51:41.520Z,101216.91
2017-09-23T01:52:47.600Z,101216.70
2017-09-23T01:53:53.675Z,101216.35
2017-09-23T01:54:59.747Z,101214.25
2017-09-23T01:56:05.832Z,101216.64
2017-09-23T01:57:11.955Z,101222.03
2017-09-23T01:58:18.132Z,101228.24
2017-09-23T01:59:24.003Z,101224.84
2017-09-23T02:00:30.067Z,101230.69
2017-09-23T02:01:35.950Z,101227.63
2017-09-23T02:02:42.066Z,101225.80
2017-09-23T02:03:47.946Z,101228.84
2017-09-23T02:04:54.344Z,101224.74
2017-09-23T02:06:00.722Z,101231.13
2017-09-23T02:07:06.823Z,101229.23
2017-09-23T02:08:12.958Z,101233.48
2017-09-23T02:09:19.022Z,101234.93
2017-09-23T02:10:25.193Z,101235.09
2017-09-23T02:11:31.265Z,101234.73
2017-09-23T02:12:37.332Z,101233.01
2017-09-23T02:13:43.537Z,101232.13
2017-09-23T02:14:49.603Z,101232.87
2017-09-23T02:15:55.686Z,101235.73
2017-09-23T02:17:01.792Z,101234.12
2017-09-23T02:18:07.870Z,101236.83
2017-09-23T02:19:13.944Z,101231.38
2017-09-23T02:20:20.018Z,101230.52
2017-09-23T02:21:26.167Z,101235.04
2017-09-23T02:22:32.230Z,101235.36
2017-09-23T02:23:38.310Z,101238.16
2017-09-23T02:24:44.447Z,101231.28
2017-09-23T02:25:50.709Z,101233.95
2017-09-23T02:26:57.668Z,101240.03
2017-09-23T02:28:03.841Z,101237.16
2017-09-23T02:29:09.936Z,101234.54
2017-09-23T02:30:16.062Z,101230.09
2017-09-23T02:31:22.190Z,101233.99
2017-09-23T02:32:28.063Z,101228.63
2017-09-23T02:33:34.154Z,101226.28
2017-09-23T02:34:40.282Z,101230.25
2017-09-23T02:35:46.544Z,101226.66
2017-09-23T02:36:52.806Z,101224.13
2017-09-23T02:37:59.652Z,101224.44
2017-09-23T02:39:05.003Z,101224.24
2017-09-23T02:40:11.117Z,101223.65
2017-09-23T02:41:17.203Z,101223.13
2017-09-23T02:42:23.351Z,101222.44
2017-09-23T02:43:29.825Z,101221.84
2017-09-23T02:44:36.109Z,101221.55
2017-09-23T02:45:42.286Z,101220.05
2017-09-23T02:46:48.371Z,101220.05
2017-09-23T02:47:54.176Z,101216.66
2017-09-23T02:49:00.262Z,101220.41
2017-09-23T02:50:05.970Z,101217.53
2017-09-23T02:51:12.119Z,101220.78
2017-09-23T02:52:18.199Z,101225.22
2017-09-23T02:53:24.318Z,101222.69
2017-09-23T02:54:30.400Z,101222.75
2017-09-23T02:55:36.486Z,101222.41
2017-09-23T02:56:42.418Z,101223.70
2017-09-23T02:57:48.517Z,101221.57
2017-09-23T02:58:54.621Z,101214.67
2017-09-23T03:00:00.703Z,101215.66
2017-09-23T03:01:06.579Z,101218.75
2017-09-23T03:02:12.902Z,101219.63
2017-09-23T03:03:19.072Z,101214.34
2017-09-23T03:04:25.268Z,101217.47
2017-09-23T03:05:31.372Z,101215.42
2017-09-23T03:06:37.491Z,101217.54
2017-09-23T03:07:43.599Z,101217.02
2017-09-23T03:08:49.678Z,101218.34
2017-09-23T03:09:55.765Z,101221.52
2017-09-23T03:11:01.876Z,101222.30
2017-09-23T03:12:07.968Z,101214.42
2017-09-23T03:13:14.100Z,101225.22
2017-09-23T03:14:20.183Z,101218.25
2017-09-23T03:15:26.327Z,101222.55
2017-09-23T03:16:32.216Z,101228.22
2017-09-23T03:17:38.310Z,101228.81
2017-09-23T03:18:44.488Z,101224.91
2017-09-23T03:19:50.652Z,101221.36
2017-09-23T03:20:56.840Z,101222.33
2017-09-23T03:22:02.960Z,101221.59
2017-09-23T03:23:09.071Z,101225.30
2017-09-23T03:24:15.155Z,101215.73
2017-09-23T03:25:21.253Z,101218.41
2017-09-23T03:26:27.399Z,101220.15
2017-09-23T03:27:33.543Z,101221.45
2017-09-23T03:28:41.478Z,101221.11
2017-09-23T03:29:49.957Z,101219.30
2017-09-23T03:30:56.731Z,101220.09
2017-09-23T03:32:04.735Z,101220.86
2017-09-23T03:33:11.176Z,101217.95
2017-09-23T03:34:17.396Z,101212.87
2017-09-23T03:35:23.541Z,101210.91
2017-09-23T03:36:29.607Z,101205.06
2017-09-23T03:37:35.675Z,101210.88
2017-09-23T03:38:41.565Z,101206.95
2017-09-23T03:39:47.645Z,101208.66
2017-09-23T03:40:53.747Z,101202.72
2017-09-23T03:41:59.640Z,101212.79
2017-09-23T03:43:05.531Z,101213.52
2017-09-23T03:44:11.648Z,101208.73
2017-09-23T03:45:17.756Z,101208.73
2017-09-23T03:46:23.881Z,101212.56
2017-09-23T03:47:29.958Z,101206.93
2017-09-23T03:48:36.037Z,101207.63
2017-09-23T03:49:41.944Z,101204.73
2017-09-23T03:50:48.058Z,101214.40
2017-09-23T03:51:54.201Z,101206.65
2017-09-23T03:53:00.308Z,101201.05
2017-09-23T03:54:06.391Z,101206.82
2017-09-23T03:55:12.550Z,101205.67
2017-09-23T03:56:18.671Z,101201.86
2017-09-23T03:57:24.819Z,101203.05
2017-09-23T03:58:30.903Z,101211.73
2017-09-23T03:59:36.991Z,101201.39
2017-09-23T04:00:43.067Z,101210.08
2017-09-23T04:01:48.943Z,101213.04
2017-09-23T04:02:55.077Z,101210.62
2017-09-23T04:04:01.137Z,101215.94
2017-09-23T04:05:07.324Z,101211.72
2017-09-23T04:06:13.459Z,101213.41
2017-09-23T04:07:19.618Z,101210.80
2017-09-23T04:08:25.891Z,101206.12
2017-09-23T04:09:31.995Z,101210.04
2017-09-23T04:10:38.276Z,101207.50
2017-09-23T04:11:44.384Z,101212.73
2017-09-23T04:12:50.437Z,101204.52
2017-09-23T04:13:56.522Z,101202.80
2017-09-23T04:15:02.607Z,101206.47
2017-09-23T04:16:08.727Z,101204.80
2017-09-23T04:17:14.622Z,101203.19
2017-09-23T04:18:20.754Z,101211.84
2017-09-23T04:19:26.913Z,101199.28
2017-09-23T04:20:32.991Z,101200.52
2017-09-23T04:21:39.476Z,101199.80
2017-09-23T04:22:45.551Z,101202.38
2017-09-23T04:23:51.667Z,101210.84
2017-09-23T04:24:57.743Z,101210.83
2017-09-23T04:26:04.043Z,101202.69
2017-09-23T04:27:10.138Z,101213.74
2017-09-23T04:28:16.334Z,101215.84
2017-09-23T04:29:22.544Z,101213.84
2017-09-23T04:30:28.326Z,101214.92
2017-09-23T04:31:34.599Z,101215.06
2017-09-23T04:32:40.705Z,101218.17
2017-09-23T04:33:46.808Z,101217.27
2017-09-23T04:34:53.097Z,101221.46
2017-09-23T04:35:59.167Z,101217.59
2017-09-23T04:37:05.254Z,101222.48
2017-09-23T04:38:11.370Z,101228.20
2017-09-23T04:39:17.526Z,101227.88
2017-09-23T04:40:23.687Z,101229.64
2017-09-23T04:41:30.606Z,101229.64
2017-09-23T04:42:36.738Z,101238.40
2017-09-23T04:43:43.085Z,101237.78
2017-09-23T04:44:49.183Z,101235.69
2017-09-23T04:45:55.322Z,101234.27
2017-09-23T04:47:01.486Z,101231.77
2017-09-23T04:48:07.937Z,101231.05
2017-09-23T04:49:14.584Z,101234.61
2017-09-23T04:50:21.693Z,101236.97
2017-09-23T04:51:31.186Z,101235.95
2017-09-23T04:52:37.522Z,101240.23
2017-09-23T04:53:43.603Z,101243.14
2017-09-23T04:54:50.060Z,101247.89
2017-09-23T04:55:56.391Z,101242.38
2017-09-23T04:57:03.378Z,101246.00
2017-09-23T04:58:09.661Z,101249.08
2017-09-23T04:59:15.752Z,101249.13
2017-09-23T05:00:21.860Z,101250.96
2017-09-23T05:01:27.993Z,101252.75
2017-09-23T05:02:34.072Z,101250.89
2017-09-23T05:03:42.062Z,101247.77
2017-09-23T05:04:48.161Z,101252.05
2017-09-23T05:05:54.820Z,101249.45
2017-09-23T05:07:00.949Z,101251.61
2017-09-23T05:08:07.014Z,101247.27
2017-09-23T05:09:13.106Z,101248.65
2017-09-23T05:10:19.203Z,101250.81
2017-09-23T05:11:25.289Z,101258.28
2017-09-23T05:12:31.394Z,101255.31
2017-09-23T05:13:37.473Z,101255.69
2017-09-23T05:14:43.658Z,101249.66
2017-09-23T05:15:49.748Z,101249.95
2017-09-23T05:16:55.827Z,101255.03
2017-09-23T05:18:01.922Z,101247.89
2017-09-23T05:19:07.999Z,101245.99
2017-09-23T05:20:14.080Z,101248.09
2017-09-23T05:21:20.171Z,101252.32
2017-09-23T05:22:26.310Z,101252.47
2017-09-23T05:23:32.447Z,101252.94
2017-09-23T05:24:38.561Z,101252.61
2017-09-23T05:25:44.665Z,101256.61
2017-09-23T05:26:50.551Z,101253.94
2017-09-23T05:27:56.672Z,101253.95
2017-09-23T05:29:02.819Z,101249.38
2017-09-23T05:30:08.918Z,101253.67
2017-09-23T05:31:15.023Z,101254.45
2017-09-23T05:32:21.157Z,101254.46
2017-09-23T05:33:27.240Z,101257.47
2017-09-23T05:34:33.542Z,101258.37
2017-09-23T05:35:39.630Z,101263.84
2017-09-23T05:36:45.912Z,101267.16
2017-09-23T05:37:52.056Z,101268.80
2017-09-23T05:38:58.065Z,101271.63
2017-09-23T05:40:04.187Z,101269.05
2017-09-23T05:41:10.248Z,101273.01
2017-09-23T05:42:16.350Z,101273.60
2017-09-23T05:43:22.548Z,101277.68
2017-09-23T05:44:28.763Z,101280.00
2017-09-23T05:45:35.095Z,101275.06
2017-09-23T05:46:41.171Z,101280.08
2017-09-23T05:47:47.251Z,101275.33
2017-09-23T05:48:53.400Z,101275.22
2017-09-23T05:50:00.474Z,101273.43
2017-09-23T05:51:07.026Z,101275.30
2017-09-23T05:52:12.937Z,101273.30
2017-09-23T05:53:19.124Z,101277.14
2017-09-23T05:54:25.654Z,101279.02
2017-09-23T05:55:31.842Z,101284.81
2017-09-23T05:56:38.047Z,101278.02
2017-09-23T05:57:44.666Z,101285.77
2017-09-23T05:58:51.238Z,101276.61
2017-09-23T05:59:57.318Z,101268.71
2017-09-23T06:01:03.874Z,101269.06
2017-09-23T06:02:09.964Z,101263.20
2017-09-23T06:03:15.837Z,101258.19
2017-09-23T06:04:21.979Z,101267.69
2017-09-23T06:05:28.267Z,101261.15
2017-09-23T06:06:34.194Z,101263.75
2017-09-23T06:07:40.290Z,101261.94
2017-09-23T06:08:46.370Z,101261.72
2017-09-23T06:09:52.559Z,101258.34
2017-09-23T06:10:58.813Z,101258.66
2017-09-23T06:12:04.907Z,101261.28
2017-09-23T06:13:10.990Z,101259.83
2017-09-23T06:14:17.086Z,101260.35
2017-09-23T06:15:23.151Z,101259.45
2017-09-23T06:16:29.202Z,101264.92
2017-09-23T06:17:35.343Z,101268.45
2017-09-23T06:18:41.418Z,101274.21
2017-09-23T06:19:47.491Z,101275.75
2017-09-23T06:20:54.435Z,101278.57
2017-09-23T06:22:00.567Z,101277.09
2017-09-23T06:23:06.660Z,101283.15
2017-09-23T06:24:12.755Z,101279.03
2017-09-23T06:25:18.910Z,101288.25
2017-09-23T06:26:25.567Z,101284.23
2017-09-23T06:27:31.962Z,101288.59
2017-09-23T06:28:37.851Z,101280.57
2017-09-23T06:29:44.481Z,101284.25
2017-09-23T06:30:53.181Z,101281.52
2017-09-23T06:32:00.494Z,101279.08
2017-09-23T06:33:07.645Z,101274.22
2017-09-23T06:34:14.280Z,101276.83
2017-09-23T06:35:20.414Z,101276.47
2017-09-23T06:36:26.582Z,101277.13
2017-09-23T06:37:32.627Z,101269.17
2017-09-23T06:38:39.915Z,101270.59
2017-09-23T06:39:46.034Z,101270.89
2017-09-23T06:40:52.107Z,101264.58
2017-09-23T06:41:58.174Z,101271.61
2017-09-23T06:43:04.237Z,101273.87
2017-09-23T06:44:10.327Z,101267.97
2017-09-23T06:45:16.398Z,101278.42
2017-09-23T06:46:22.494Z,101270.87
2017-09-23T06:47:30.227Z,101267.72
2017-09-23T06:48:37.263Z,101278.42
2017-09-23T06:49:44.201Z,101277.20
2017-09-23T06:50:51.036Z,101281.42
2017-09-23T06:51:58.145Z,101282.26
2017-09-23T06:53:06.576Z,101285.09
2017-09-23T06:54:13.317Z,101284.20
2017-09-23T06:55:29.216Z,101290.61
2017-09-23T06:56:54.153Z,101290.36
2017-09-23T06:58:20.236Z,101293.57
2017-09-23T06:59:28.045Z,101294.89
2017-09-23T07:00:34.960Z,101295.50
2017-09-23T07:01:41.043Z,101295.06
2017-09-23T07:02:47.165Z,101297.52
2017-09-23T07:03:54.172Z,101296.64
2017-09-23T07:05:00.769Z,101296.19
2017-09-23T07:06:07.312Z,101297.84
2017-09-23T07:07:13.719Z,101296.34
2017-09-23T07:08:20.883Z,101293.68
2017-09-23T07:09:27.195Z,101292.27
2017-09-23T07:10:33.329Z,101298.28
2017-09-23T07:11:39.519Z,101296.82
2017-09-23T07:12:46.754Z,101297.66
2017-09-23T07:13:52.823Z,101294.89
2017-09-23T07:14:59.315Z,101300.19
2017-09-23T07:16:05.644Z,101298.77
2017-09-23T07:17:13.059Z,101298.52
2017-09-23T07:18:19.902Z,101294.86
2017-09-23T07:19:26.939Z,101297.72
2017-09-23T07:20:33.017Z,101297.96
2017-09-23T07:21:42.335Z,101297.21
2017-09-23T07:22:55.367Z,101298.42
2017-09-23T07:24:09.339Z,101294.31
2017-09-23T07:25:21.154Z,101295.36
2017-09-23T07:26:27.573Z,101300.88
2017-09-23T07:27:33.929Z,101291.03
2017-09-23T07:28:41.322Z,101298.41
2017-09-23T07:29:47.877Z,101292.00
2017-09-23T07:30:53.975Z,101299.18
2017-09-23T07:32:00.002Z,101298.12
2017-09-23T07:33:06.087Z,101301.08
2017-09-23T07:34:13.658Z,101300.70
2017-09-23T07:35:20.599Z,101307.82
2017-09-23T07:36:26.802Z,101296.97
2017-09-23T07:37:33.098Z,101300.45
2017-09-23T07:38:39.317Z,101303.45
2017-09-23T07:39:45.312Z,101300.64
2017-09-23T07:40:51.420Z,101300.56
2017-09-23T07:41:58.139Z,101300.91
2017-09-23T07:43:04.296Z,101301.23
2017-09-23T07:44:11.705Z,101292.09
2017-09-23T07:45:17.787Z,101294.16
2017-09-23T07:46:24.690Z,101298.03
2017-09-23T07:47:30.789Z,101294.92
2017-09-23T07:48:36.918Z,101299.16
2017-09-23T07:49:43.109Z,101300.07
2017-09-23T07:50:50.036Z,101299.86
2017-09-23T07:51:56.124Z,101302.16
2017-09-23T07:53:02.584Z,101303.70
2017-09-23T07:54:09.211Z,101308.83
2017-09-23T07:55:15.355Z,101302.21
2017-09-23T07:56:21.565Z,101308.33
2017-09-23T07:57:27.510Z,101311.58
2017-09-23T07:58:33.725Z,101309.78
2017-09-23T07:59:39.910Z,101312.66
2017-09-23T08:00:46.043Z,101304.59
2017-09-23T08:01:55.279Z,101310.72
2017-09-23T08:03:01.503Z,101311.14
2017-09-23T08:04:07.910Z,101312.69
2017-09-23T08:05:14.505Z,101312.75
2017-09-23T08:06:21.551Z,101316.17
2017-09-23T08:07:28.782Z,101312.19
2017-09-23T08:08:35.457Z,101318.26
2017-09-23T08:09:42.380Z,101320.92
2017-09-23T08:10:49.456Z,101314.81
2017-09-23T08:11:57.792Z,101319.50
2017-09-23T08:13:06.642Z,101319.30
2017-09-23T08:14:13.973Z,101317.94
2017-09-23T08:15:21.652Z,101321.48
2017-09-23T08:16:28.597Z,101322.75
2017-09-23T08:17:36.469Z,101318.22
2017-09-23T08:18:45.456Z,101318.08
2017-09-23T08:19:55.616Z,101321.84
2017-09-23T08:21:04.102Z,101323.36
2017-09-23T08:22:12.182Z,101318.44
2017-09-23T08:23:21.002Z,101317.69
2017-09-23T08:24:29.322Z,101323.06
2017-09-23T08:25:38.689Z,101325.17
2017-09-23T08:26:47.950Z,101330.21
2017-09-23T08:27:56.428Z,101332.81
2017-09-23T08:29:04.602Z,101337.63
2017-09-23T08:30:13.365Z,101332.77
2017-09-23T08:31:21.596Z,101332.89
2017-09-23T08:32:27.740Z,101328.05
2017-09-23T08:33:34.412Z,101327.23
2017-09-23T08:34:40.853Z,101332.18
2017-09-23T08:35:47.942Z,101329.87
2017-09-23T08:36:54.801Z,101335.36
2017-09-23T08:38:02.456Z,101340.96
2017-09-23T08:39:11.872Z,101338.91
2017-09-23T08:40:18.671Z,101335.89
2017-09-23T08:41:25.242Z,101336.59
2017-09-23T08:42:31.742Z,101336.28
2017-09-23T08:43:39.175Z,101337.38
2017-09-23T08:44:45.434Z,101341.98
2017-09-23T08:45:52.430Z,101337.48
2017-09-23T08:46:59.925Z,101342.81
2017-09-23T08:48:08.739Z,101337.52
2017-09-23T08:49:15.573Z,101340.30
2017-09-23T08:50:21.674Z,101335.75
2017-09-23T08:51:28.165Z,101335.89
2017-09-23T08:52:35.458Z,101342.16
2017-09-23T08:53:42.024Z,101342.31
2017-09-23T08:54:49.381Z,101337.31
2017-09-23T08:55:56.003Z,101333.38
2017-09-23T08:57:04.918Z,101340.56
2017-09-23T08:58:11.966Z,101341.92
2017-09-23T08:59:18.123Z,101336.25
2017-09-23T09:00:24.829Z,101332.70
2017-09-23T09:01:32.366Z,101337.80
2017-09-23T09:02:38.466Z,101341.27
2017-09-23T09:03:44.637Z,101334.13
2017-09-23T09:04:53.527Z,101338.04
2017-09-23T09:06:00.252Z,101335.31
2017-09-23T09:07:06.511Z,101328.07
2017-09-23T09:08:13.234Z,101324.21
2017-09-23T09:09:19.328Z,101332.11
2017-09-23T09:10:26.407Z,101333.45
2017-09-23T09:11:33.703Z,101336.64
2017-09-23T09:12:44.463Z,101336.34
2017-09-23T09:13:51.259Z,101334.34
2017-09-23T09:14:57.622Z,101329.95
2017-09-23T09:16:04.959Z,101328.98
2017-09-23T09:17:11.729Z,101328.20
2017-09-23T09:18:21.794Z,101326.05
2017-09-23T09:19:28.571Z,101325.84
2017-09-23T09:20:35.043Z,101320.50
2017-09-23T09:21:41.890Z,101324.65
2017-09-23T09:22:48.563Z,101324.13
2017-09-23T09:23:55.184Z,101319.17
2017-09-23T09:25:01.767Z,101322.78
2017-09-23T09:26:09.347Z,101323.02
2017-09-23T09:27:17.112Z,101317.91
2017-09-23T09:28:25.672Z,101324.22
2017-09-23T09:29:32.090Z,101316.34
2017-09-23T09:30:39.910Z,101320.42
2017-09-23T09:31:46.527Z,101320.00
2017-09-23T09:32:52.682Z,101324.80
2017-09-23T09:33:59.179Z,101325.77
2017-09-23T09:35:05.465Z,101326.20
2017-09-23T09:36:11.778Z,101325.27
2017-09-23T09:37:19.379Z,101320.83
2017-09-23T09:38:26.295Z,101318.46
2017-09-23T09:39:32.378Z,101318.14
2017-09-23T09:40:38.942Z,101320.08
2017-09-23T09:41:45.149Z,101317.81
2017-09-23T09:42:52.671Z,101320.06
2017-09-23T09:44:00.652Z,101318.60
2017-09-23T09:45:07.340Z,101316.73
2017-09-23T09:46:13.765Z,101319.75
2017-09-23T09:47:19.986Z,101320.73
2017-09-23T09:48:26.911Z,101321.41
2017-09-23T09:49:34.184Z,101325.80
2017-09-23T09:50:42.147Z,101316.27
2017-09-23T09:51:50.157Z,101317.20
2017-09-23T09:52:57.704Z,101320.25
2017-09-23T09:54:04.969Z,101320.56
2017-09-23T09:55:12.038Z,101318.70
2017-09-23T09:56:18.719Z,101317.32
2017-09-23T09:57:27.966Z,101310.06
2017-09-23T09:58:35.621Z,101311.16
2017-09-23T09:59:42.967Z,101309.66
2017-09-23T10:00:50.534Z,101301.22
2017-09-23T10:02:00.609Z,101303.63
2017-09-23T10:03:06.889Z,101298.66
2017-09-23T10:04:14.264Z,101291.44
2017-09-23T10:05:21.787Z,101291.67
2017-09-23T10:06:28.592Z,101297.59
2017-09-23T10:07:36.441Z,101294.88
2017-09-23T10:08:44.172Z,101295.52
2017-09-23T10:09:52.421Z,101295.08
2017-09-23T10:10:59.516Z,101298.85
2017-09-23T10:12:08.538Z,101297.67
2017-09-23T10:13:17.483Z,101294.20
2017-09-23T10:14:24.725Z,101295.34
2017-09-23T10:15:32.967Z,101292.69
2017-09-23T10:16:40.201Z,101290.34
2017-09-23T10:17:46.791Z,101288.45
2017-09-23T10:18:53.916Z,101292.68
2017-09-23T10:20:02.747Z,101295.80
2017-09-23T10:21:10.636Z,101298.25
2017-09-23T10:22:17.870Z,101299.92
2017-09-23T10:23:25.458Z,101295.98
2017-09-23T10:24:32.431Z,101295.43
2017-09-23T10:25:39.467Z,101300.00
2017-09-23T10:26:46.787Z,101293.48
2017-09-23T10:27:54.125Z,101294.42
2017-09-23T10:29:02.785Z,101298.16
2017-09-23T10:30:10.392Z,101298.05
2017-09-23T10:31:20.114Z,101288.45
2017-09-23T10:32:27.942Z,101287.32
2017-09-23T10:33:36.749Z,101287.05
2017-09-23T10:34:45.310Z,101286.98
2017-09-23T10:35:51.377Z,101285.45
2017-09-23T10:36:57.572Z,101285.06
2017-09-23T10:38:03.894Z,101282.06
2017-09-23T10:39:10.311Z,101277.10
2017-09-23T10:40:16.510Z,101279.45
2017-09-23T10:41:22.724Z,101281.59
2017-09-23T10:42:30.209Z,101274.30
2017-09-23T10:43:38.522Z,101279.19
2017-09-23T10:44:45.300Z,101276.16
2017-09-23T10:45:51.555Z,101274.99
2017-09-23T10:47:01.642Z,101268.83
2017-09-23T10:48:08.937Z,101272.23
2017-09-23T10:49:16.307Z,101269.74
2017-09-23T10:50:24.579Z,101273.52
2017-09-23T10:51:31.610Z,101276.79
2017-09-23T10:52:39.392Z,101272.30
2017-09-23T10:53:46.768Z,101268.00
2017-09-23T10:54:55.321Z,101270.87
2017-09-23T10:56:03.686Z,101266.86
2017-09-23T10:57:11.169Z,101266.67
2017-09-23T10:58:18.873Z,101268.19
2017-09-23T10:59:27.189Z,101264.89
2017-09-23T11:00:35.487Z,101260.86
2017-09-23T11:01:43.077Z,101259.17
2017-09-23T11:02:51.200Z,101259.42
2017-09-23T11:03:59.756Z,101261.70
2017-09-23T11:05:06.852Z,101256.62
2017-09-23T11:06:16.232Z,101260.66
2017-09-23T11:07:23.697Z,101260.63
2017-09-23T11:08:31.113Z,101254.99
2017-09-23T11:09:40.100Z,101259.30
2017-09-23T11:10:47.101Z,101250.20
2017-09-23T11:11:55.012Z,101254.55
2017-09-23T11:13:04.175Z,101252.16
2017-09-23T11:14:10.727Z,101257.63
2017-09-23T11:15:16.856Z,101257.01
2017-09-23T11:16:24.753Z,101254.84
2017-09-23T11:17:33.808Z,101259.22
2017-09-23T11:18:40.604Z,101254.11
2017-09-23T11:19:48.125Z,101255.98
2017-09-23T11:20:55.066Z,101254.59
2017-09-23T11:22:02.347Z,101250.40
2017-09-23T11:23:08.473Z,101255.11
2017-09-23T11:24:14.732Z,101254.80
2017-09-23T11:25:22.842Z,101253.58
2017-09-23T11:26:30.713Z,101246.87
2017-09-23T11:27:37.334Z,101249.54
2017-09-23T11:28:44.406Z,101250.22
2017-09-23T11:29:50.992Z,101246.20
2017-09-23T11:30:57.520Z,101247.98
2017-09-23T11:32:05.129Z,101246.31
2017-09-23T11:33:12.106Z,101248.45
2017-09-23T11:34:19.867Z,101238.20
2017-09-23T11:35:26.618Z,101232.76
2017-09-23T11:36:33.749Z,101240.95
2017-09-23T11:37:41.560Z,101240.61
2017-09-23T11:38:48.601Z,101230.33
2017-09-23T11:39:55.110Z,101239.80
2017-09-23T11:41:02.265Z,101230.13
2017-09-23T11:42:09.055Z,101235.41
2017-09-23T11:43:16.406Z,101230.44
2017-09-23T11:44:24.540Z,101226.64
2017-09-23T11:45:31.948Z,101231.53
2017-09-23T11:46:41.409Z,101224.42
2017-09-23T11:47:49.120Z,101225.77
2017-09-23T11:48:56.016Z,101234.63
2017-09-23T11:50:02.525Z,101227.41
2017-09-23T11:51:09.843Z,101229.39
2017-09-23T11:52:16.424Z,101226.03
2017-09-23T11:53:23.266Z,101227.64
2017-09-23T11:54:30.986Z,101226.25
2017-09-23T11:55:38.662Z,101225.27
2017-09-23T11:56:46.715Z,101234.35
2017-09-23T11:57:54.055Z,101226.37
2017-09-23T11:59:00.769Z,101227.62
2017-09-23T12:00:07.888Z,101223.62
2017-09-23T12:01:14.765Z,101219.33
2017-09-23T12:02:21.066Z,101221.95
2017-09-23T12:03:27.810Z,101222.61
2017-09-23T12:04:34.824Z,101220.94
2017-09-23T12:05:43.145Z,101219.78
2017-09-23T12:06:50.649Z,101221.08
2017-09-23T12:07:58.496Z,101224.67
2017-09-23T12:09:05.362Z,101226.25
2017-09-23T12:10:12.694Z,101220.23
2017-09-23T12:11:19.862Z,101221.54
2017-09-23T12:12:27.575Z,101215.53
2017-09-23T12:13:35.921Z,101213.67
2017-09-23T12:14:45.401Z,101220.91
2017-09-23T12:15:52.717Z,101215.35
2017-09-23T12:17:00.273Z,101221.11
2017-09-23T12:18:08.799Z,101217.16
2017-09-23T12:19:16.282Z,101215.31
2017-09-23T12:20:23.441Z,101209.34
2017-09-23T12:21:30.665Z,101211.11
2017-09-23T12:22:37.965Z,101207.59
2017-09-23T12:23:45.532Z,101213.52
2017-09-23T12:24:53.706Z,101210.00
2017-09-23T12:26:01.946Z,101207.33
2017-09-23T12:27:08.625Z,101212.39
2017-09-23T12:28:14.900Z,101208.80
2017-09-23T12:30:44.992Z,101214.11
2017-09-23T12:31:52.720Z,101208.41
2017-09-23T12:33:01.490Z,101209.41
2017-09-23T12:34:10.316Z,101211.98
2017-09-23T12:35:18.166Z,101216.23
2017-09-23T12:36:25.819Z,101210.81
2017-09-23T12:37:33.101Z,101210.60
2017-09-23T12:38:40.936Z,101212.75
2017-09-23T12:39:47.726Z,101208.42
2017-09-23T12:40:54.734Z,101203.85
2017-09-23T12:42:02.235Z,101204.84
2017-09-23T12:43:09.745Z,101202.36